Time;durP1;ratioP1;P1;durP2;ratioP2;P2;SDS_P1;SDS_P2;PMS_P1;PMS_P2;Temp;Humidity;BMP_temperature;BMP_pressure;BME280_temperature;BME280_humidity;BME280_pressure;Samples;Min_cycle;Max_cycle;Signal;HPM_P1;HPM_P2
2023/08/21 08:22:35;;;;;;;14.93;13.63;;;;;;;;;;6238611;22;20107;-89
2023/08/21 08:25:00;;;;;;;15.18;13.77;;;;;;;;;;6220207;23;20015;-88
2023/08/21 08:27:26;;;;;;;15.82;14.05;;;;;;;;;;6217915;23;20424;-82
2023/08/21 08:29:51;;;;;;;14.90;13.50;;;;;;;;;;6218045;23;20201;-92
2023/08/21 08:32:17;;;;;;;14.68;13.30;;;;;;;;;;6217862;23;20012;-81
2023/08/21 08:34:46;;;;;;;15.05;13.75;;;;;;;;;;6216890;23;20381;-90
2023/08/21 08:37:11;;;;;;;14.70;13.40;;;;;;;;;;6217907;23;20419;-81
2023/08/21 08:39:37;;;;;;;15.27;13.98;;;;;;;;;;6218083;23;20039;-81
2023/08/21 08:42:03;;;;;;;15.82;14.32;;;;;;;;;;6217956;23;20001;-86
2023/08/21 08:44:30;;;;;;;15.93;14.30;;;;;;;;;;6217826;23;20436;-82
2023/08/21 08:46:56;;;;;;;15.35;13.95;;;;;;;;;;6217057;23;20335;-87
2023/08/21 08:49:22;;;;;;;14.90;13.50;;;;;;;;;;6217673;23;20005;-85
2023/08/21 08:51:50;;;;;;;15.05;13.55;;;;;;;;;;6217342;23;20013;-86
2023/08/21 08:54:18;;;;;;;15.05;13.85;;;;;;;;;;6217437;23;20011;-87
2023/08/21 08:56:43;;;;;;;15.15;13.85;;;;;;;;;;6217311;23;20004;-79
2023/08/21 08:59:09;;;;;;;15.40;14.05;;;;;;;;;;6217648;23;20005;-93
2023/08/21 09:01:34;;;;;;;16.50;15.05;;;;;;;;;;6218554;23;20025;-90
2023/08/21 09:04:01;;;;;;;16.23;14.65;;;;;;;;;;6217851;23;20077;-91
2023/08/21 09:06:27;;;;;;;15.57;14.18;;;;;;;;;;6218440;23;20112;-90
2023/08/21 09:08:56;;;;;;;14.77;13.45;;;;;;;;;;6218183;23;20009;-91
2023/08/21 09:11:22;;;;;;;15.65;14.30;;;;;;;;;;6218181;23;20034;-92
2023/08/21 09:13:53;;;;;;;15.15;13.85;;;;;;;;;;6218493;23;20363;-91
2023/08/21 09:16:20;;;;;;;16.02;14.60;;;;;;;;;;6218201;23;20011;-91
2023/08/21 09:18:50;;;;;;;16.02;14.63;;;;;;;;;;6217399;23;20001;-78
2023/08/21 09:21:17;;;;;;;15.20;13.90;;;;;;;;;;6217711;23;20016;-92
2023/08/21 09:23:42;;;;;;;15.25;13.82;;;;;;;;;;6241948;23;20400;-92
2023/08/21 09:26:08;;;;;;;15.98;14.57;;;;;;;;;;6248060;23;20011;-79
2023/08/21 09:28:34;;;;;;;16.02;14.65;;;;;;;;;;6248160;23;20000;-90
2023/08/21 09:31:33;;;;;;;14.32;13.00;;;;;;;;;;6256139;23;19988;-81
2023/08/21 09:33:59;;;;;;;;;;;;;;;;;;6251374;23;20063;-87
2023/08/21 09:36:24;;;;;;;15.25;14.00;;;;;;;;;;6247605;23;19923;-91
2023/08/21 09:38:52;;;;;;;16.23;14.07;;;;;;;;;;6222500;23;20004;-84
2023/08/21 09:41:22;;;;;;;14.57;13.27;;;;;;;;;;6247945;23;20423;-86
2023/08/21 09:43:47;;;;;;;15.73;14.07;;;;;;;;;;6248338;23;20491;-92
2023/08/21 09:46:23;;;;;;;15.25;13.85;;;;;;;;;;6247840;23;20000;-89
2023/08/21 09:48:49;;;;;;;16.17;14.75;;;;;;;;;;6247649;23;20004;-90
2023/08/21 09:51:15;;;;;;;15.68;14.38;;;;;;;;;;6247372;23;20043;-79
2023/08/21 09:53:41;;;;;;;15.40;14.15;;;;;;;;;;6221238;23;20435;-83
2023/08/21 09:56:08;;;;;;;16.48;15.07;;;;;;;;;;6247638;23;20004;-88
2023/08/21 09:58:35;;;;;;;15.68;14.18;;;;;;;;;;6247803;23;20004;-80
2023/08/21 10:01:14;;;;;;;14.90;13.23;;;;;;;;;;6247638;23;20049;-89
2023/08/21 10:03:42;;;;;;;15.27;13.90;;;;;;;;;;6247459;23;20000;-93
2023/08/21 10:06:11;;;;;;;14.60;13.38;;;;;;;;;;6247586;23;20102;-92
2023/08/21 10:08:41;;;;;;;14.75;13.55;;;;;;;;;;6251268;23;20011;-96
2023/08/21 10:11:08;;;;;;;14.48;13.18;;;;;;;;;;6256029;23;20079;-92
2023/08/21 10:13:36;;;;;;;14.50;13.10;;;;;;;;;;6250294;23;20011;-91
2023/08/21 10:16:02;;;;;;;14.82;13.52;;;;;;;;;;6247466;23;20027;-86
2023/08/21 10:18:35;;;;;;;15.02;13.52;;;;;;;;;;6247349;23;20414;-88
2023/08/21 10:21:21;;;;;;;14.73;13.38;;;;;;;;;;6246989;23;20004;-88
2023/08/21 10:23:54;;;;;;;15.55;14.27;;;;;;;;;;6247030;23;20016;-89
2023/08/21 10:26:21;;;;;;;14.07;12.85;;;;;;;;;;6246106;23;20014;-92
2023/08/21 10:29:01;;;;;;;13.77;12.52;;;;;;;;;;6246869;23;20000;-83
2023/08/21 10:31:34;;;;;;;13.70;12.50;;;;;;;;;;6246800;23;20004;-91
2023/08/21 10:34:05;;;;;;;16.52;14.85;;;;;;;;;;6221936;23;20032;-92
2023/08/21 10:36:37;;;;;;;15.60;14.10;;;;;;;;;;6196731;23;20091;-89
2023/08/21 10:39:04;;;;;;;16.23;14.65;;;;;;;;;;6246894;23;20008;-85
2023/08/21 10:41:30;;;;;;;15.13;13.82;;;;;;;;;;6247897;23;20027;-88
2023/08/21 10:43:55;;;;;;;16.08;14.45;;;;;;;;;;6245221;23;20007;-82
2023/08/21 10:46:20;;;;;;;15.13;13.88;;;;;;;;;;6246669;23;20004;-87
2023/08/21 10:48:46;;;;;;;15.38;13.88;;;;;;;;;;6248085;23;20000;-89
2023/08/21 10:51:13;;;;;;;14.85;13.45;;;;;;;;;;6247963;23;20008;-88
2023/08/21 10:53:41;;;;;;;15.57;14.00;;;;;;;;;;6248111;23;20078;-91
2023/08/21 10:56:07;;;;;;;14.93;13.73;;;;;;;;;;6247445;23;20031;-88
2023/08/21 10:58:41;;;;;;;15.00;13.63;;;;;;;;;;6220330;23;20700;-88
2023/08/21 11:01:06;;;;;;;14.95;13.65;;;;;;;;;;6246753;23;20046;-87
2023/08/21 11:03:32;;;;;;;14.98;13.60;;;;;;;;;;6246710;23;20008;-88
2023/08/21 11:06:05;;;;;;;13.93;12.68;;;;;;;;;;6246482;23;20054;-89
2023/08/21 11:08:35;;;;;;;15.20;13.90;;;;;;;;;;6246451;23;20010;-87
2023/08/21 11:11:03;;;;;;;14.95;13.65;;;;;;;;;;6246508;23;20075;-89
2023/08/21 11:13:30;;;;;;;14.65;13.25;;;;;;;;;;6246706;23;20011;-90
2023/08/21 11:16:03;;;;;;;15.52;14.13;;;;;;;;;;6246498;23;19996;-87
2023/08/21 11:18:38;;;;;;;13.60;12.50;;;;;;;;;;6244872;23;20083;-86
2023/08/21 11:21:08;;;;;;;14.85;13.57;;;;;;;;;;6246993;23;20013;-89
2023/08/21 11:23:39;;;;;;;14.80;13.50;;;;;;;;;;6246326;23;20008;-83
2023/08/21 11:26:06;;;;;;;15.10;13.73;;;;;;;;;;6246431;23;20054;-90
2023/08/21 11:28:32;;;;;;;14.38;13.07;;;;;;;;;;6246554;23;20008;-89
2023/08/21 11:30:58;;;;;;;15.35;14.10;;;;;;;;;;6246512;23;20036;-91
2023/08/21 11:33:26;;;;;;;14.82;13.43;;;;;;;;;;6246777;23;20004;-81
2023/08/21 11:35:53;;;;;;;15.15;13.85;;;;;;;;;;6246724;23;20020;-81
2023/08/21 11:38:23;;;;;;;14.25;12.98;;;;;;;;;;6247952;23;20091;-85
2023/08/21 11:40:56;;;;;;;13.52;12.35;;;;;;;;;;6249695;23;20062;-81
2023/08/21 11:43:22;;;;;;;13.23;12.13;;;;;;;;;;6246879;23;20039;-86
2023/08/21 11:45:48;;;;;;;13.20;11.77;;;;;;;;;;6246450;23;20030;-86
2023/08/21 16:06:50;;;;;;;14.13;12.85;;;;;;;;;;6310702;22;20379;-87
2023/08/21 16:09:20;;;;;;;14.70;13.30;;;;;;;;;;6310053;22;20007;-85
2023/08/21 16:11:45;;;;;;;13.98;12.68;;;;;;;;;;6310395;22;20014;-86
2023/08/21 16:14:12;;;;;;;12.77;11.68;;;;;;;;;;6310010;22;20376;-83
2023/08/21 16:16:38;;;;;;;13.55;12.35;;;;;;;;;;6309768;22;19995;-82
2023/08/21 16:19:04;;;;;;;13.40;12.25;;;;;;;;;;6310401;22;20295;-79
2023/08/21 16:21:30;;;;;;;13.55;12.52;;;;;;;;;;6309738;22;19991;-86
2023/08/21 16:23:55;;;;;;;13.10;12.00;;;;;;;;;;6309516;22;20003;-85
2023/08/21 16:26:21;;;;;;;13.98;12.77;;;;;;;;;;6309761;22;20053;-85
2023/08/21 16:28:46;;;;;;;14.60;13.10;;;;;;;;;;6309622;22;19995;-83
2023/08/21 16:31:16;;;;;;;15.15;13.85;;;;;;;;;;6309559;22;20003;-81
2023/08/21 16:33:42;;;;;;;15.43;14.02;;;;;;;;;;6307796;22;20030;-81
2023/08/21 16:36:08;;;;;;;14.88;13.45;;;;;;;;;;6309815;22;19999;-81
2023/08/21 16:38:34;;;;;;;13.38;12.18;;;;;;;;;;6309591;22;19999;-84
2023/08/21 16:41:00;;;;;;;13.85;12.60;;;;;;;;;;6309683;22;20483;-85
2023/08/21 16:43:25;;;;;;;13.30;12.10;;;;;;;;;;6309341;22;19999;-86
2023/08/21 16:45:50;;;;;;;13.50;12.30;;;;;;;;;;6309942;22;20003;-85
2023/08/21 16:48:17;;;;;;;15.00;12.40;;;;;;;;;;6309436;22;20372;-84
2023/08/21 16:50:43;;;;;;;13.70;12.43;;;;;;;;;;6309504;22;20045;-85
2023/08/21 16:53:08;;;;;;;13.50;12.30;;;;;;;;;;6309484;22;19999;-86
2023/08/21 16:55:34;;;;;;;13.70;12.38;;;;;;;;;;6309529;22;20002;-87
2023/08/21 16:58:01;;;;;;;16.48;12.10;;;;;;;;;;6309347;22;20003;-86
2023/08/21 17:00:27;;;;;;;12.63;11.30;;;;;;;;;;6309850;22;20007;-86
2023/08/21 17:02:52;;;;;;;13.85;12.65;;;;;;;;;;6309946;22;20010;-86
2023/08/21 17:05:18;;;;;;;13.60;12.30;;;;;;;;;;6310129;22;20070;-85
2023/08/21 17:07:44;;;;;;;13.40;12.13;;;;;;;;;;6309501;22;20430;-87
2023/08/21 17:10:10;;;;;;;13.77;12.48;;;;;;;;;;6310403;22;20418;-89
2023/08/21 17:12:36;;;;;;;12.18;11.18;;;;;;;;;;6310062;22;20075;-90
2023/08/21 17:15:04;;;;;;;14.25;12.85;;;;;;;;;;6309936;22;20003;-85
2023/08/21 17:17:30;;;;;;;13.38;12.18;;;;;;;;;;6309054;22;20003;-87
2023/08/21 17:19:55;;;;;;;14.18;12.88;;;;;;;;;;6307957;22;20054;-84
2023/08/21 17:22:21;;;;;;;13.30;12.15;;;;;;;;;;6310648;22;20012;-92
2023/08/21 17:24:47;;;;;;;13.07;11.82;;;;;;;;;;6309318;22;20376;-94
2023/08/21 17:27:13;;;;;;;14.98;13.68;;;;;;;;;;6311766;22;20010;-93
2023/08/21 17:29:38;;;;;;;13.55;12.20;;;;;;;;;;6316816;22;20090;-94
2023/08/21 17:32:16;;;;;;;13.32;12.02;;;;;;;;;;6313882;22;20318;-89
2023/08/21 17:34:42;;;;;;;14.15;12.82;;;;;;;;;;6312769;22;19999;-93
2023/08/21 17:37:07;;;;;;;15.05;12.65;;;;;;;;;;6311415;22;20056;-86
2023/08/21 17:39:34;;;;;;;12.88;11.52;;;;;;;;;;6310219;22;20299;-90
2023/08/21 17:42:00;;;;;;;12.82;11.73;;;;;;;;;;6308044;22;20312;-89
2023/08/21 17:44:25;;;;;;;13.88;12.63;;;;;;;;;;6308457;22;20060;-83
2023/08/21 17:46:51;;;;;;;13.30;12.02;;;;;;;;;;6309962;22;19999;-91
2023/08/21 17:49:16;;;;;;;12.57;11.52;;;;;;;;;;6314592;22;20061;-92
2023/08/21 17:51:42;;;;;;;12.93;11.73;;;;;;;;;;6309730;22;20010;-90
2023/08/21 17:54:07;;;;;;;12.73;11.55;;;;;;;;;;6312136;22;20010;-81
2023/08/21 17:56:33;;;;;;;13.65;12.38;;;;;;;;;;6310092;22;20053;-83
2023/08/21 17:58:58;;;;;;;13.40;12.20;;;;;;;;;;6310467;22;20053;-95
2023/08/21 18:01:24;;;;;;;13.35;12.10;;;;;;;;;;6312305;22;20406;-84
2023/08/21 18:03:49;;;;;;;13.25;12.15;;;;;;;;;;6315330;22;20006;-90
2023/08/21 18:06:15;;;;;;;14.13;12.95;;;;;;;;;;6310256;22;20047;-93
2023/08/21 18:08:40;;;;;;;16.23;14.70;;;;;;;;;;6309981;22;20422;-87
2023/08/21 18:11:07;;;;;;;14.40;13.02;;;;;;;;;;6309076;22;20056;-84
2023/08/21 18:13:34;;;;;;;14.00;12.80;;;;;;;;;;6307867;22;20390;-89
2023/08/21 18:15:59;;;;;;;14.05;12.65;;;;;;;;;;6310264;22;20026;-93
2023/08/21 18:18:25;;;;;;;13.68;12.48;;;;;;;;;;6309604;22;20006;-90
2023/08/21 18:20:54;;;;;;;13.18;11.98;;;;;;;;;;6309572;22;20015;-91
2023/08/21 18:23:25;;;;;;;13.77;12.63;;;;;;;;;;6309549;22;20048;-91
2023/08/21 18:25:51;;;;;;;12.93;11.82;;;;;;;;;;6310840;22;20079;-94
2023/08/21 18:28:22;;;;;;;13.43;12.23;;;;;;;;;;6308811;22;20006;-93
2023/08/21 18:30:49;;;;;;;13.25;12.05;;;;;;;;;;6308622;22;19996;-84
2023/08/21 18:33:15;;;;;;;12.57;11.48;;;;;;;;;;6308209;22;20018;-88
2023/08/21 18:35:40;;;;;;;13.18;11.88;;;;;;;;;;6309106;22;20078;-85
2023/08/21 18:38:06;;;;;;;15.77;14.30;;;;;;;;;;6308918;22;20078;-92
2023/08/21 18:40:32;;;;;;;14.82;13.52;;;;;;;;;;6309031;22;20003;-87
2023/08/21 18:42:58;;;;;;;14.35;13.13;;;;;;;;;;6309018;22;20446;-89
2023/08/21 18:45:23;;;;;;;13.57;12.20;;;;;;;;;;6307100;22;20465;-87
2023/08/21 18:47:49;;;;;;;14.13;12.88;;;;;;;;;;6308717;22;20422;-84
2023/08/21 18:50:19;;;;;;;14.77;13.48;;;;;;;;;;6308125;22;20414;-84
2023/08/21 18:52:46;;;;;;;14.23;13.02;;;;;;;;;;6308335;22;20003;-84
2023/08/21 18:55:12;;;;;;;13.30;12.05;;;;;;;;;;6308565;22;20068;-84
2023/08/21 18:57:38;;;;;;;14.07;12.88;;;;;;;;;;6308289;22;19999;-87
2023/08/21 19:00:09;;;;;;;14.82;13.40;;;;;;;;;;6308658;22;20007;-83
2023/08/21 19:02:34;;;;;;;14.05;12.85;;;;;;;;;;6309423;22;19999;-86
2023/08/21 19:05:00;;;;;;;14.00;12.77;;;;;;;;;;6308561;22;20015;-85
2023/08/21 19:07:25;;;;;;;13.82;12.52;;;;;;;;;;6308265;22;20913;-86
2023/08/21 19:09:51;;;;;;;13.77;12.48;;;;;;;;;;6308231;22;20037;-91
2023/08/21 19:12:16;;;;;;;14.60;13.30;;;;;;;;;;6306912;22;20064;-85
2023/08/21 19:14:42;;;;;;;13.23;12.10;;;;;;;;;;6308540;22;20079;-85
2023/08/21 19:17:07;;;;;;;13.68;12.48;;;;;;;;;;6308232;22;20326;-84
2023/08/21 19:19:33;;;;;;;14.45;13.15;;;;;;;;;;6306705;22;20007;-85
2023/08/21 19:21:58;;;;;;;12.98;11.70;;;;;;;;;;6307987;22;20418;-84
2023/08/21 19:24:24;;;;;;;13.30;11.95;;;;;;;;;;6308145;22;20299;-82
2023/08/21 19:26:49;;;;;;;13.85;12.52;;;;;;;;;;6308062;22;20007;-82
2023/08/21 19:29:14;;;;;;;13.32;12.23;;;;;;;;;;6308285;22;19999;-85
2023/08/21 19:31:40;;;;;;;14.43;13.00;;;;;;;;;;6309694;22;20426;-83
2023/08/21 19:34:05;;;;;;;13.55;12.35;;;;;;;;;;6310078;22;20037;-86
2023/08/21 19:36:31;;;;;;;14.02;12.55;;;;;;;;;;6315431;22;20031;-85
2023/08/21 19:38:56;;;;;;;14.00;12.70;;;;;;;;;;6317109;22;20085;-88
2023/08/21 19:41:22;;;;;;;14.45;13.25;;;;;;;;;;6316722;22;20477;-89
2023/08/21 19:43:47;;;;;;;14.05;12.65;;;;;;;;;;6314443;22;20061;-83
2023/08/21 19:46:13;;;;;;;15.23;13.82;;;;;;;;;;6310292;22;19999;-85
2023/08/21 19:48:39;;;;;;;12.68;11.63;;;;;;;;;;6311373;22;19999;-86
2023/08/21 19:51:04;;;;;;;14.35;13.05;;;;;;;;;;6309984;22;20036;-86
2023/08/21 19:53:30;;;;;;;13.27;12.18;;;;;;;;;;6310037;22;20023;-83
2023/08/21 19:55:55;;;;;;;13.90;12.60;;;;;;;;;;6310038;22;20003;-83
2023/08/21 19:58:21;;;;;;;15.48;13.93;;;;;;;;;;6309786;22;20003;-83
2023/08/21 20:00:47;;;;;;;14.73;13.40;;;;;;;;;;6308991;22;20003;-83
2023/08/21 20:03:12;;;;;;;14.38;13.02;;;;;;;;;;6309489;22;20078;-83
2023/08/21 20:05:38;;;;;;;14.10;12.73;;;;;;;;;;6309495;22;20025;-84
2023/08/21 20:08:04;;;;;;;15.35;13.90;;;;;;;;;;6309497;22;20007;-82
2023/08/21 20:10:29;;;;;;;14.40;13.02;;;;;;;;;;6309411;22;20137;-83
2023/08/21 20:12:55;;;;;;;13.77;12.43;;;;;;;;;;6309701;22;20334;-84
2023/08/21 20:15:20;;;;;;;14.85;13.55;;;;;;;;;;6309576;22;19999;-83
2023/08/21 20:17:46;;;;;;;14.10;12.90;;;;;;;;;;6309586;22;20045;-82
2023/08/21 20:20:12;;;;;;;14.35;13.15;;;;;;;;;;6309498;22;20010;-84
2023/08/21 20:22:41;;;;;;;14.18;12.88;;;;;;;;;;6309582;22;20066;-82
2023/08/21 20:25:07;;;;;;;14.15;13.02;;;;;;;;;;6309759;22;20010;-83
2023/08/21 20:27:34;;;;;;;14.48;13.07;;;;;;;;;;6307835;22;20568;-82
2023/08/21 20:30:00;;;;;;;14.85;13.38;;;;;;;;;;6307865;22;20042;-83
2023/08/21 20:32:25;;;;;;;14.18;12.88;;;;;;;;;;6309598;22;20007;-83
2023/08/21 20:34:52;;;;;;;13.88;12.57;;;;;;;;;;6309356;22;20007;-82
2023/08/21 20:37:18;;;;;;;14.18;12.77;;;;;;;;;;6309192;22;20003;-83
2023/08/21 20:39:44;;;;;;;14.25;13.07;;;;;;;;;;6309937;22;20056;-82
2023/08/21 20:42:09;;;;;;;13.93;12.73;;;;;;;;;;6309596;22;20318;-82
2023/08/21 20:44:36;;;;;;;14.18;12.88;;;;;;;;;;6309214;22;20000;-83
2023/08/21 20:47:02;;;;;;;13.98;12.77;;;;;;;;;;6309342;22;20039;-83
2023/08/21 20:49:27;;;;;;;13.95;12.73;;;;;;;;;;6309239;22;20031;-83
2023/08/21 20:51:53;;;;;;;14.50;13.18;;;;;;;;;;6310076;22;20091;-82
2023/08/21 20:54:18;;;;;;;13.77;12.57;;;;;;;;;;6309340;22;20447;-82
2023/08/21 20:56:44;;;;;;;14.00;12.80;;;;;;;;;;6309224;22;20007;-83
2023/08/21 20:59:10;;;;;;;14.25;12.85;;;;;;;;;;6309300;22;20003;-83
2023/08/21 21:01:35;;;;;;;14.38;13.07;;;;;;;;;;6309083;22;20082;-83
2023/08/21 21:04:01;;;;;;;13.77;12.50;;;;;;;;;;6308887;22;20010;-83
2023/08/21 21:06:29;;;;;;;13.80;12.50;;;;;;;;;;6308934;22;20011;-84
2023/08/21 21:08:55;;;;;;;13.93;12.73;;;;;;;;;;6307607;22;20003;-82
2023/08/21 21:11:20;;;;;;;14.63;13.23;;;;;;;;;;6309411;22;20014;-83
2023/08/21 21:13:45;;;;;;;14.52;13.23;;;;;;;;;;6307556;22;20373;-82
2023/08/21 21:16:11;;;;;;;15.43;13.90;;;;;;;;;;6309472;22;20068;-84
2023/08/21 21:18:36;;;;;;;14.80;13.38;;;;;;;;;;6307541;22;20061;-83
2023/08/21 21:21:02;;;;;;;14.50;13.20;;;;;;;;;;6309206;22;20010;-83
2023/08/21 21:23:27;;;;;;;14.95;13.45;;;;;;;;;;6307441;22;20003;-84
2023/08/21 21:25:53;;;;;;;15.63;14.23;;;;;;;;;;6309640;22;20030;-87
2023/08/21 21:28:18;;;;;;;14.43;13.00;;;;;;;;;;6309260;22;20003;-83
2023/08/21 21:30:44;;;;;;;15.35;13.95;;;;;;;;;;6309404;22;19999;-86
2023/08/21 21:33:09;;;;;;;15.18;13.68;;;;;;;;;;6309090;22;20380;-91
2023/08/21 21:35:35;;;;;;;13.45;12.25;;;;;;;;;;6309388;22;20018;-91
2023/08/21 21:38:00;;;;;;;14.70;13.30;;;;;;;;;;6309887;22;20091;-89
